Time;durP1;ratioP1;P1;durP2;ratioP2;P2;SDS_P1;SDS_P2;PMS_P1;PMS_P2;Temp;Humidity;BMP_temperature;BMP_pressure;BME280_temperature;BME280_humidity;BME280_pressure;Samples;Min_cycle;Max_cycle;Signal;HPM_P1;HPM_P2
2024/04/20 00:01:25;;;;;;;21.27;5.03;;;;;;;8.03;81.06;101608.19;5445188;26;20013;-54
2024/04/20 00:03:53;;;;;;;27.77;4.93;;;;;;;8.26;79.56;101601.34;5414043;26;20549;-55
2024/04/20 00:06:20;;;;;;;24.63;5.00;;;;;;;7.99;80.37;101607.06;5441267;26;20005;-56
2024/04/20 00:08:48;;;;;;;23.55;5.18;;;;;;;7.85;80.04;101606.81;5408353;26;19999;-56
2024/04/20 00:11:15;;;;;;;26.25;4.38;;;;;;;7.91;79.68;101613.13;5445369;26;19995;-57
2024/04/20 00:13:44;;;;;;;29.90;4.88;;;;;;;7.68;80.85;101609.00;5414220;26;19999;-53
2024/04/20 00:16:12;;;;;;;30.77;4.60;;;;;;;7.64;81.02;101604.31;5419436;26;20654;-55
2024/04/20 00:18:39;;;;;;;20.33;4.70;;;;;;;7.73;81.75;101614.47;5445126;26;20016;-57
2024/04/20 00:21:08;;;;;;;31.23;5.43;;;;;;;7.52;82.13;101617.44;5445311;26;19999;-56
2024/04/20 00:23:35;;;;;;;25.75;4.55;;;;;;;7.56;83.02;101615.81;5415324;26;19999;-57
2024/04/20 00:26:06;;;;;;;24.77;4.68;;;;;;;7.52;84.03;101612.78;5445708;26;19999;-54
2024/04/20 00:28:34;;;;;;;22.17;4.45;;;;;;;7.68;84.11;101605.41;5396102;26;20484;-56
2024/04/20 00:31:02;;;;;;;28.27;5.57;;;;;;;7.74;83.84;101605.13;5414143;26;20003;-57
2024/04/20 00:33:29;;;;;;;23.10;3.92;;;;;;;7.35;81.06;101622.34;5443686;26;19999;-57
2024/04/20 00:35:57;;;;;;;28.42;4.38;;;;;;;7.55;82.34;101617.72;5444905;26;19995;-53
2024/04/20 00:38:24;;;;;;;29.55;5.53;;;;;;;7.61;82.95;101613.09;5423242;26;20062;-55
2024/04/20 00:40:58;;;;;;;25.30;4.95;;;;;;;7.75;83.18;101615.03;5413467;26;20013;-56
2024/04/20 00:43:25;;;;;;;22.67;4.60;;;;;;;7.81;83.91;101626.84;5404834;26;19998;-56
2024/04/20 00:45:55;;;;;;;25.85;4.45;;;;;;;7.55;84.32;101622.41;5444486;26;20007;-56
2024/04/20 00:48:22;;;;;;;24.45;5.18;;;;;;;7.93;84.28;101619.16;5444826;26;20002;-55
2024/04/20 00:50:50;;;;;;;33.30;6.68;;;;;;;7.39;85.04;101618.78;5444128;26;20744;-53
2024/04/20 00:53:19;;;;;;;28.75;5.80;;;;;;;7.61;85.61;101618.56;5434718;26;20469;-54
2024/04/20 00:55:47;;;;;;;30.70;7.27;;;;;;;7.63;85.53;101610.91;5443921;26;20017;-55
2024/04/20 00:58:15;;;;;;;33.15;7.35;;;;;;;7.58;85.34;101619.13;5443617;26;19999;-57
2024/04/20 01:00:42;;;;;;;32.67;9.10;;;;;;;7.60;85.26;101617.72;5445086;26;20005;-54
2024/04/20 01:03:10;;;;;;;34.45;9.98;;;;;;;7.49;85.96;101618.00;5444528;26;19999;-57
2024/04/20 01:05:37;;;;;;;36.38;10.35;;;;;;;7.45;85.65;101622.38;5362479;26;19999;-55
2024/04/20 01:08:06;;;;;;;30.85;8.65;;;;;;;7.16;87.55;101618.44;5441647;26;20448;-57
2024/04/20 01:10:33;;;;;;;28.38;6.80;;;;;;;7.09;88.03;101615.97;5429099;26;20746;-58
2024/04/20 01:13:06;;;;;;;29.30;6.40;;;;;;;7.12;88.83;101620.91;5442521;26;20002;-59
2024/04/20 01:15:34;;;;;;;24.35;6.07;;;;;;;6.96;90.51;101619.19;5445220;26;19999;-56
2024/04/20 01:18:02;;;;;;;30.10;6.40;;;;;;;7.10;90.33;101619.50;5444483;26;20003;-53
2024/04/20 01:20:30;;;;;;;22.77;4.88;;;;;;;7.13;89.46;101619.00;5411590;26;20357;-55
2024/04/20 01:23:01;;;;;;;26.13;5.03;;;;;;;7.14;89.84;101615.16;5444918;26;19999;-57
2024/04/20 01:25:29;;;;;;;26.15;5.13;;;;;;;7.15;90.20;101614.09;5444476;26;19995;-56
2024/04/20 01:27:56;;;;;;;27.23;4.78;;;;;;;6.94;90.14;101617.84;5402911;26;20010;-56
2024/04/20 01:30:23;;;;;;;24.08;4.60;;;;;;;6.94;91.53;101615.88;5400213;26;20003;-56
2024/04/20 01:32:51;;;;;;;29.38;4.55;;;;;;;6.97;91.10;101626.34;5377376;26;20042;-55
2024/04/20 01:35:20;;;;;;;23.52;4.30;;;;;;;6.93;91.65;101625.22;5408221;26;20574;-57
2024/04/20 01:37:48;;;;;;;24.17;5.13;;;;;;;6.77;91.66;101628.97;5406497;26;20006;-55
2024/04/20 01:40:15;;;;;;;24.13;4.70;;;;;;;6.70;92.30;101629.22;5407968;26;20006;-56
2024/04/20 01:42:43;;;;;;;24.02;5.00;;;;;;;6.77;92.48;101620.75;5402526;26;20007;-55
2024/04/20 01:45:10;;;;;;;24.52;4.70;;;;;;;6.92;91.61;101628.22;5405979;26;20004;-56
2024/04/20 01:47:38;;;;;;;21.58;4.45;;;;;;;6.74;92.20;101632.25;5408433;26;20004;-56
2024/04/20 01:50:06;;;;;;;21.10;3.83;;;;;;;6.85;91.98;101642.16;5405389;26;19999;-56
2024/04/20 01:52:34;;;;;;;24.25;4.88;;;;;;;6.85;91.88;101642.97;5398008;26;20000;-56
2024/04/20 01:55:01;;;;;;;23.30;4.18;;;;;;;6.83;91.37;101639.66;5407850;26;20010;-55
2024/04/20 01:57:30;;;;;;;27.25;4.53;;;;;;;6.83;91.20;101638.88;5408677;26;20086;-56
2024/04/20 01:59:58;;;;;;;25.70;4.65;;;;;;;6.80;91.58;101642.13;5405559;26;20000;-55
2024/04/20 02:02:25;;;;;;;21.13;4.43;;;;;;;6.58;91.35;101645.03;5405934;26;20030;-56
2024/04/20 02:04:52;;;;;;;27.15;4.28;;;;;;;6.68;91.61;101646.97;5407828;26;20013;-56
2024/04/20 02:07:20;;;;;;;24.48;4.18;;;;;;;6.62;91.69;101657.09;5407017;26;20000;-56
2024/04/20 02:09:48;;;;;;;22.13;4.47;;;;;;;6.40;92.14;101650.91;5408152;26;19995;-52
2024/04/20 02:12:15;;;;;;;23.23;4.78;;;;;;;6.59;92.14;101649.38;5407783;26;19999;-57
2024/04/20 02:14:42;;;;;;;23.65;4.43;;;;;;;6.85;90.89;101647.66;5399435;26;19996;-56
2024/04/20 02:17:10;;;;;;;24.58;4.82;;;;;;;6.73;89.94;101649.75;5392936;26;20010;-56
2024/04/20 02:19:37;;;;;;;22.00;4.72;;;;;;;6.48;91.04;101657.81;5398579;26;20000;-56
2024/04/20 02:22:04;;;;;;;21.65;4.07;;;;;;;6.57;90.71;101659.78;5398618;26;20006;-57
2024/04/20 02:24:33;;;;;;;23.23;4.78;;;;;;;6.45;91.64;101661.88;5407734;26;20006;-52
2024/04/20 02:27:00;;;;;;;23.08;4.53;;;;;;;6.59;91.13;101663.06;5386180;26;20916;-55
2024/04/20 02:29:28;;;;;;;21.83;4.05;;;;;;;6.36;90.68;101668.94;5434186;26;20003;-57
2024/04/20 02:31:56;;;;;;;20.27;4.25;;;;;;;6.45;91.57;101672.84;5442870;26;20007;-57
2024/04/20 02:34:23;;;;;;;18.33;4.18;;;;;;;6.31;91.35;101674.38;5442846;26;19999;-57
2024/04/20 02:37:11;;;;;;;19.13;3.90;;;;;;;6.33;92.18;101669.47;5425070;26;20005;-58
2024/04/20 02:39:39;;;;;;;21.77;4.63;;;;;;;6.32;91.36;101675.19;5408060;26;19995;-56
2024/04/20 02:42:07;;;;;;;24.08;4.63;;;;;;;6.51;91.49;101663.59;5403844;26;20009;-53
2024/04/20 02:44:34;;;;;;;21.83;4.10;;;;;;;6.41;89.86;101666.25;5422728;26;20005;-52
2024/04/20 02:47:02;;;;;;;20.27;4.20;;;;;;;6.67;89.64;101665.34;5443546;26;20013;-53
2024/04/20 02:49:30;;;;;;;19.45;3.33;;;;;;;6.67;88.32;101662.59;5443667;26;20030;-53
2024/04/20 02:51:57;;;;;;;23.52;4.57;;;;;;;6.56;88.06;101673.72;5430355;26;20009;-55
2024/04/20 02:54:24;;;;;;;20.58;3.60;;;;;;;6.33;88.46;101674.94;5443737;26;20013;-55
2024/04/20 02:56:52;;;;;;;21.10;3.90;;;;;;;6.81;88.64;101671.16;5443391;26;20486;-55
2024/04/20 02:59:19;;;;;;;17.27;3.35;;;;;;;6.72;86.95;101670.84;5441433;26;20482;-56
2024/04/20 03:01:46;;;;;;;19.73;3.38;;;;;;;6.84;86.78;101671.44;5441970;26;19995;-56
2024/04/20 03:04:14;;;;;;;21.75;4.18;;;;;;;6.82;86.50;101668.16;5441745;26;20010;-56
2024/04/20 03:06:42;;;;;;;21.38;3.58;;;;;;;6.59;84.47;101676.75;5413679;26;20005;-54
2024/04/20 03:09:09;;;;;;;17.73;3.50;;;;;;;6.35;83.39;101686.44;5442546;26;20458;-57
2024/04/20 03:11:36;;;;;;;17.92;3.05;;;;;;;6.34;83.77;101684.81;5437383;26;20441;-58
2024/04/20 03:14:04;;;;;;;15.38;3.13;;;;;;;6.21;83.23;101687.97;5442797;26;19995;-59
2024/04/20 03:16:31;;;;;;;17.05;3.03;;;;;;;6.05;83.48;101693.59;5441720;26;19995;-59
2024/04/20 03:18:58;;;;;;;21.80;4.15;;;;;;;6.11;83.97;101692.53;5441161;26;20017;-56
2024/04/20 03:21:26;;;;;;;20.73;4.07;;;;;;;6.37;83.67;101708.91;5401007;26;19999;-54
2024/04/20 03:23:53;;;;;;;18.77;3.40;;;;;;;6.13;82.45;101712.25;5440885;26;20003;-55
2024/04/20 03:26:20;;;;;;;19.48;3.70;;;;;;;6.04;83.73;101700.94;5441732;26;20285;-56
2024/04/20 03:28:48;;;;;;;18.48;3.63;;;;;;;6.00;83.69;101704.47;5439123;26;20021;-55
2024/04/20 03:31:15;;;;;;;18.10;3.58;;;;;;;5.93;83.60;101701.13;5412956;26;19995;-56
2024/04/20 03:33:43;;;;;;;15.25;3.47;;;;;;;6.00;83.75;101701.75;5437292;26;20164;-56
2024/04/20 03:36:10;;;;;;;20.90;3.92;;;;;;;5.88;83.84;101704.63;5430988;26;20005;-56
2024/04/20 03:38:39;;;;;;;15.70;3.40;;;;;;;5.98;83.50;101709.38;5445570;26;20003;-54
2024/04/20 03:41:07;;;;;;;18.13;3.08;;;;;;;6.04;82.98;101709.16;5444097;26;20012;-55
2024/04/20 03:43:34;;;;;;;13.32;3.13;;;;;;;6.10;82.28;101710.03;5444496;26;20030;-56
2024/04/20 03:46:03;;;;;;;20.15;3.85;;;;;;;6.13;82.43;101712.25;5446080;26;20348;-53
2024/04/20 03:48:32;;;;;;;19.20;4.03;;;;;;;6.16;81.19;101712.53;5446421;26;20013;-55
2024/04/20 03:51:00;;;;;;;18.43;3.10;;;;;;;6.15;81.49;101718.28;5440696;26;19998;-54
2024/04/20 03:53:27;;;;;;;22.85;3.00;;;;;;;5.95;81.84;101721.63;5427187;26;20236;-55
2024/04/20 03:55:55;;;;;;;14.73;3.13;;;;;;;5.91;82.73;101722.44;5446470;26;20002;-57
2024/04/20 03:58:22;;;;;;;16.48;2.95;;;;;;;5.96;82.65;101730.69;5418394;26;20012;-57
2024/04/20 04:00:49;;;;;;;17.05;3.85;;;;;;;6.15;81.67;101726.50;5446424;26;20013;-53
2024/04/20 04:03:22;;;;;;;11.63;3.00;;;;;;;6.26;81.45;101729.03;5445160;26;20003;-55
2024/04/20 04:05:50;;;;;;;19.95;3.25;;;;;;;5.98;81.79;101732.06;5439403;26;20009;-53
2024/04/20 04:08:18;;;;;;;20.15;3.22;;;;;;;5.91;82.27;101728.69;5442226;26;19995;-54
2024/04/20 04:10:45;;;;;;;13.38;3.17;;;;;;;5.87;82.50;101722.13;5445380;26;19999;-58
2024/04/20 04:13:14;;;;;;;16.88;3.97;;;;;;;5.86;83.44;101730.59;5445121;26;20013;-54
2024/04/20 04:15:41;;;;;;;13.73;2.65;;;;;;;5.87;84.33;101737.69;5408773;26;20843;-54
2024/04/20 04:18:10;;;;;;;16.38;3.30;;;;;;;6.03;83.91;101737.59;5413452;26;20477;-59
2024/04/20 04:20:37;;;;;;;16.08;3.10;;;;;;;6.19;84.43;101742.09;5437760;26;20565;-56
2024/04/20 04:23:05;;;;;;;16.35;2.88;;;;;;;5.93;84.61;101750.34;5384970;26;20003;-56
2024/04/20 04:25:35;;;;;;;18.48;3.33;;;;;;;5.90;85.02;101748.94;5435425;26;20002;-56
2024/04/20 04:28:03;;;;;;;17.38;2.90;;;;;;;6.15;84.43;101757.41;5463530;26;20012;-57
2024/04/20 04:30:32;;;;;;;14.05;2.83;;;;;;;5.92;84.80;101751.41;5418290;26;20018;-57
2024/04/20 04:32:59;;;;;;;23.20;3.50;;;;;;;5.71;85.56;101733.94;5441053;26;20013;-55
2024/04/20 04:35:27;;;;;;;13.93;2.60;;;;;;;6.04;84.83;101747.44;5445242;26;19994;-56
2024/04/20 04:37:55;;;;;;;17.92;2.90;;;;;;;6.00;84.36;101756.44;5445087;26;20005;-54
2024/04/20 04:40:23;;;;;;;14.20;3.00;;;;;;;5.87;84.92;101754.94;5407590;26;20004;-54
2024/04/20 04:42:52;;;;;;;19.52;3.97;;;;;;;5.87;84.85;101763.13;5406097;26;19995;-60
2024/04/20 04:45:20;;;;;;;17.25;3.15;;;;;;;5.90;85.32;101748.94;5384295;26;19998;-59
2024/04/20 04:47:48;;;;;;;16.70;3.05;;;;;;;6.05;84.20;101754.56;5443890;26;20708;-59
2024/04/20 04:50:16;;;;;;;13.88;2.95;;;;;;;6.07;84.55;101757.03;5418354;26;20014;-60
2024/04/20 04:52:43;;;;;;;23.02;3.13;;;;;;;6.17;84.02;101760.69;5408501;26;20009;-60
2024/04/20 04:55:11;;;;;;;22.50;2.42;;;;;;;6.14;83.68;101763.13;5378018;26;20000;-56
2024/04/20 04:57:38;;;;;;;12.52;2.78;;;;;;;6.02;83.33;101770.66;5441783;26;19999;-58
2024/04/20 05:00:09;;;;;;;14.07;3.47;;;;;;;5.92;83.27;101762.34;5444419;26;20003;-59
2024/04/20 05:02:36;;;;;;;12.82;2.75;;;;;;;6.08;82.44;101767.72;5427630;26;20008;-58
2024/04/20 05:05:04;;;;;;;18.00;2.63;;;;;;;6.12;83.00;101771.59;5442971;26;20759;-59
2024/04/20 05:07:32;;;;;;;19.55;3.40;;;;;;;6.24;82.36;101779.66;5425555;26;20134;-59
2024/04/20 05:09:59;;;;;;;17.15;2.80;;;;;;;6.35;82.38;101787.69;5443007;26;20005;-51
2024/04/20 05:12:27;;;;;;;17.30;3.13;;;;;;;5.97;80.84;101792.47;5469034;26;20001;-57
2024/04/20 05:14:56;;;;;;;14.00;2.80;;;;;;;5.80;82.29;101795.28;5455487;26;20003;-55
2024/04/20 05:17:23;;;;;;;14.13;2.90;;;;;;;6.01;82.58;101805.41;5434467;26;20002;-57
2024/04/20 05:19:51;;;;;;;16.35;3.63;;;;;;;6.20;80.93;101795.75;5446763;26;20028;-56
2024/04/20 05:22:19;;;;;;;14.93;2.40;;;;;;;6.44;80.16;101804.44;5444254;26;20462;-52
2024/04/20 05:24:46;;;;;;;15.40;2.72;;;;;;;6.12;80.19;101804.41;5408893;26;20003;-56
2024/04/20 05:27:15;;;;;;;15.48;2.95;;;;;;;6.19;80.24;101812.44;5409281;26;20006;-55
2024/04/20 05:29:42;;;;;;;11.40;3.53;;;;;;;6.40;80.27;101814.25;5440825;26;19999;-54
2024/04/20 05:32:10;;;;;;;15.82;2.85;;;;;;;6.46;79.67;101822.28;5430867;26;20022;-54
2024/04/20 05:34:37;;;;;;;20.73;2.83;;;;;;;6.18;80.64;101821.69;5430615;26;20838;-52
2024/04/20 05:37:04;;;;;;;18.27;3.22;;;;;;;5.84;81.91;101829.22;5409286;26;19999;-56
2024/04/20 05:39:33;;;;;;;24.90;2.88;;;;;;;5.92;82.42;101830.69;5443463;26;20013;-59
2024/04/20 05:42:01;;;;;;;14.57;2.80;;;;;;;5.71;82.70;101840.53;5413440;26;19999;-55
2024/04/20 05:44:28;;;;;;;16.08;2.95;;;;;;;5.61;84.01;101835.75;5441934;26;19999;-57
2024/04/20 05:46:56;;;;;;;14.77;2.67;;;;;;;5.86;82.48;101839.94;5444418;26;19999;-56
2024/04/20 05:49:23;;;;;;;20.30;3.45;;;;;;;5.66;82.67;101844.03;5396505;26;20341;-54
2024/04/20 05:51:51;;;;;;;15.32;3.30;;;;;;;5.88;81.97;101849.53;5443664;26;20557;-56
2024/04/20 05:54:19;;;;;;;21.63;2.53;;;;;;;5.82;82.20;101858.72;5415609;26;19998;-56
2024/04/20 05:56:46;;;;;;;28.02;3.38;;;;;;;5.68;81.98;101860.19;5410012;26;19999;-56
2024/04/20 05:59:14;;;;;;;12.73;2.78;;;;;;;5.78;80.56;101860.31;5428423;26;20010;-54
2024/04/20 06:01:41;;;;;;;14.00;3.45;;;;;;;5.77;79.82;101861.38;5413099;26;20003;-53
2024/04/20 06:04:09;;;;;;;16.77;3.22;;;;;;;5.71;80.09;101863.25;5443358;26;19999;-53
2024/04/20 06:06:37;;;;;;;21.75;3.65;;;;;;;5.85;78.97;101862.88;5440112;26;20013;-57
2024/04/20 06:09:08;;;;;;;16.63;2.72;;;;;;;6.03;78.58;101877.06;5420795;26;20013;-55
2024/04/20 06:11:36;;;;;;;21.92;2.88;;;;;;;6.19;77.07;101867.13;5442914;26;20001;-54
2024/04/20 06:14:03;;;;;;;18.20;2.92;;;;;;;5.99;75.97;101859.50;5443099;26;20872;-56
2024/04/20 06:16:31;;;;;;;15.50;3.20;;;;;;;6.04;75.31;101872.41;5442654;26;19999;-53
2024/04/20 06:18:58;;;;;;;15.77;2.13;;;;;;;6.14;75.80;101883.47;5421811;26;19998;-56
2024/04/20 06:21:25;;;;;;;13.18;2.95;;;;;;;5.99;76.08;101875.91;5443700;26;19995;-56
2024/04/20 06:23:53;;;;;;;18.15;3.25;;;;;;;6.08;75.11;101885.34;5434671;26;20052;-57
2024/04/20 06:26:21;;;;;;;19.92;3.40;;;;;;;6.21;75.02;101890.41;5417876;26;20004;-57
2024/04/20 06:28:49;;;;;;;14.10;2.95;;;;;;;6.05;73.55;101902.25;5395598;26;19998;-56
2024/04/20 06:31:16;;;;;;;17.42;2.83;;;;;;;6.10;74.28;101885.06;5442588;26;20009;-55
2024/04/20 06:33:44;;;;;;;17.45;3.00;;;;;;;6.19;73.51;101905.44;5421478;26;20009;-56
2024/04/20 06:36:11;;;;;;;20.50;3.28;;;;;;;6.17;73.73;101891.19;5442383;26;19995;-55
2024/04/20 06:38:39;;;;;;;12.40;2.58;;;;;;;6.27;73.76;101888.56;5442310;26;20003;-55
2024/04/20 06:41:06;;;;;;;20.95;3.28;;;;;;;6.42;73.91;101886.81;5432881;26;19999;-56
2024/04/20 06:43:33;;;;;;;20.02;3.30;;;;;;;6.40;73.31;101893.63;5442648;26;20017;-56
2024/04/20 06:46:01;;;;;;;18.90;3.03;;;;;;;6.51;73.00;101887.19;5442721;26;20010;-55
2024/04/20 06:48:28;;;;;;;20.67;2.97;;;;;;;6.56;71.92;101903.66;5442524;26;20009;-57
2024/04/20 06:50:57;;;;;;;15.82;3.17;;;;;;;6.34;73.34;101906.44;5442786;26;19999;-54
2024/04/20 06:53:24;;;;;;;16.98;2.85;;;;;;;6.37;73.03;101900.44;5441650;26;20009;-56
2024/04/20 06:55:59;;;;;;;13.45;2.33;;;;;;;6.74;72.22;101916.97;5404904;26;20000;-56
2024/04/20 06:58:26;;;;;;;17.17;2.22;;;;;;;6.48;71.48;101929.59;5412279;26;20005;-54
2024/04/20 07:00:54;;;;;;;16.27;2.75;;;;;;;6.51;72.13;101923.59;5409205;26;20577;-57
2024/04/20 07:03:22;;;;;;;17.52;3.28;;;;;;;6.59;72.08;101917.63;5411953;26;20087;-57
2024/04/20 07:05:56;;;;;;;15.00;2.47;;;;;;;6.55;71.49;101924.75;5388435;26;20006;-57
2024/04/20 07:08:23;;;;;;;16.73;2.55;;;;;;;6.66;71.69;101928.38;5443796;26;19999;-59
2024/04/20 07:11:01;;;;;;;17.02;2.47;;;;;;;6.81;71.72;101942.25;5438087;26;20082;-58
2024/04/20 07:13:31;;;;;;;16.27;2.95;;;;;;;6.55;71.71;101941.16;5428372;26;20003;-59
2024/04/20 07:15:58;;;;;;;18.08;2.65;;;;;;;6.44;72.54;101950.31;5429640;26;19998;-57
2024/04/20 07:18:26;;;;;;;17.45;2.85;;;;;;;6.44;72.14;101944.03;5423453;26;20009;-59
2024/04/20 07:20:54;;;;;;;18.80;2.83;;;;;;;6.46;72.59;101945.44;5433338;26;20011;-60
2024/04/20 07:23:22;;;;;;;15.40;2.70;;;;;;;6.41;72.87;101944.53;5407969;26;19999;-59
2024/04/20 07:26:03;;;;;;;16.17;2.72;;;;;;;6.72;72.85;101952.00;5395397;26;19999;-58
2024/04/20 07:28:31;;;;;;;16.08;3.10;;;;;;;6.71;72.00;101948.44;5406433;26;20471;-61
2024/04/20 07:30:58;;;;;;;19.58;3.00;;;;;;;7.15;70.61;101967.50;5410948;26;19999;-58
2024/04/20 07:33:26;;;;;;;21.33;2.85;;;;;;;6.72;71.76;101958.31;5423364;26;20006;-60
2024/04/20 07:35:57;;;;;;;19.08;3.25;;;;;;;6.61;72.49;101959.28;5389384;26;20560;-55
2024/04/20 07:38:25;;;;;;;17.23;3.05;;;;;;;6.57;72.96;101958.13;5378943;26;20007;-55
2024/04/20 07:40:52;;;;;;;16.10;3.05;;;;;;;6.76;72.65;101953.16;5418019;26;20014;-57
2024/04/20 07:43:20;;;;;;;21.75;3.70;;;;;;;7.07;71.79;101957.84;5444742;26;20600;-58
2024/04/20 07:45:47;;;;;;;19.98;3.17;;;;;;;7.08;71.44;101959.47;5406065;26;20747;-56
2024/04/20 07:48:15;;;;;;;19.65;2.95;;;;;;;6.95;72.50;101954.44;5413044;26;20006;-58
2024/04/20 07:50:42;;;;;;;18.95;2.67;;;;;;;6.72;72.05;101963.78;5427234;26;20013;-57
2024/04/20 07:53:10;;;;;;;17.13;2.92;;;;;;;6.87;72.63;101954.09;5345291;26;19996;-60
2024/04/20 07:55:37;;;;;;;20.30;3.50;;;;;;;6.87;72.30;101948.59;5408740;26;20003;-60
2024/04/20 07:58:04;;;;;;;13.13;2.50;;;;;;;7.10;71.20;101959.22;5378729;26;20581;-59
2024/04/20 08:00:32;;;;;;;19.95;3.20;;;;;;;6.85;72.19;101946.13;5410958;26;20006;-57
2024/04/20 08:02:59;;;;;;;19.00;3.08;;;;;;;7.26;71.22;101955.53;5416598;26;20014;-56
2024/04/20 08:05:27;;;;;;;17.85;3.90;;;;;;;7.59;70.02;101950.59;5385371;26;20588;-60
2024/04/20 08:07:54;;;;;;;14.02;2.72;;;;;;;7.20;69.10;101960.13;5414218;26;20025;-59
2024/04/20 08:10:21;;;;;;;19.17;3.38;;;;;;;7.42;69.33;101962.78;5414616;26;20013;-53
2024/04/20 08:12:49;;;;;;;18.80;2.70;;;;;;;7.28;70.17;101965.16;5392861;26;20014;-55
2024/04/20 08:15:16;;;;;;;15.82;3.38;;;;;;;7.35;70.74;101970.41;5426123;26;20028;-56
2024/04/20 08:17:44;;;;;;;17.60;2.92;;;;;;;7.51;69.60;101981.25;5438149;26;20002;-59
2024/04/20 08:20:11;;;;;;;19.95;2.67;;;;;;;7.48;69.53;101979.00;5414186;26;20021;-53
2024/04/20 08:22:39;;;;;;;15.05;2.33;;;;;;;7.57;68.39;101982.09;5459277;26;20017;-56
2024/04/20 08:25:06;;;;;;;21.17;2.78;;;;;;;7.45;68.51;101978.69;5419602;26;19999;-55
2024/04/20 08:27:35;;;;;;;14.48;2.55;;;;;;;7.71;69.53;101980.53;5449997;26;19998;-57
2024/04/20 08:30:03;;;;;;;21.92;4.15;;;;;;;7.65;69.15;101993.38;5456779;26;20015;-56
2024/04/20 08:32:30;;;;;;;21.10;3.55;;;;;;;7.94;69.21;101981.00;5447096;26;19998;-55
2024/04/20 08:34:58;;;;;;;18.30;3.38;;;;;;;7.96;69.74;101989.78;5432847;26;20008;-59
2024/04/20 08:37:25;;;;;;;17.80;2.85;;;;;;;8.03;69.13;101995.03;5415936;26;20014;-56
2024/04/20 08:39:52;;;;;;;21.80;2.88;;;;;;;8.10;69.16;102003.03;5432795;26;20032;-62
2024/04/20 08:42:34;;;;;;;19.33;3.38;;;;;;;7.82;67.29;101996.00;5407086;26;20000;-57
2024/04/20 08:45:03;;;;;;;16.35;2.25;;;;;;;7.62;66.26;101988.44;5375739;26;19998;-61
2024/04/20 08:47:32;;;;;;;13.82;2.58;;;;;;;7.95;66.07;101990.03;5409905;26;20004;-61
2024/04/20 08:50:00;;;;;;;13.15;3.20;;;;;;;8.15;64.90;102003.03;5410885;26;20003;-61
2024/04/20 08:52:28;;;;;;;20.15;2.95;;;;;;;7.96;65.23;102003.50;5405066;26;20009;-61
2024/04/20 08:54:59;;;;;;;18.63;2.50;;;;;;;8.13;64.78;102007.97;5445581;26;20002;-61
2024/04/20 08:57:27;;;;;;;16.65;2.65;;;;;;;8.60;64.48;102003.28;5480204;26;20012;-60
2024/04/20 08:59:54;;;;;;;17.88;2.92;;;;;;;8.30;64.35;102009.47;5480322;26;19994;-59
2024/04/20 09:02:23;;;;;;;16.80;2.75;;;;;;;8.32;63.15;101996.31;5456908;26;20211;-57
2024/04/20 09:04:53;;;;;;;19.27;3.77;;;;;;;8.20;62.33;102003.91;5451178;26;20013;-58
2024/04/20 09:07:23;;;;;;;20.60;2.88;;;;;;;8.24;62.50;101998.75;5412779;26;20003;-58
2024/04/20 09:09:50;;;;;;;13.38;3.00;;;;;;;8.27;61.98;102010.00;5412485;26;20002;-59
2024/04/20 09:12:18;;;;;;;13.02;2.70;;;;;;;8.34;62.77;101996.03;5388442;26;20007;-60
2024/04/20 09:14:45;;;;;;;15.18;2.90;;;;;;;8.67;63.42;101999.22;5413468;26;20830;-57
2024/04/20 09:17:12;;;;;;;15.35;2.97;;;;;;;8.49;63.25;101998.88;5420264;26;20011;-58
2024/04/20 09:19:40;;;;;;;15.50;2.40;;;;;;;8.79;64.28;102001.72;5443267;26;20114;-58
2024/04/20 09:22:09;;;;;;;12.63;2.97;;;;;;;8.77;61.10;102006.66;5449617;26;19998;-58
2024/04/20 09:24:37;;;;;;;16.75;2.30;;;;;;;8.80;60.31;102017.91;5402248;26;20010;-58
2024/04/20 09:27:05;;;;;;;15.88;2.80;;;;;;;8.60;61.97;102000.53;5416004;26;20018;-59
2024/04/20 09:29:32;;;;;;;16.27;3.03;;;;;;;8.53;60.92;102016.44;5423089;26;19999;-60
2024/04/20 09:32:00;;;;;;;15.13;2.72;;;;;;;8.76;60.18;102016.81;5435063;26;20019;-56
2024/04/20 09:34:27;;;;;;;19.05;2.85;;;;;;;8.77;59.74;102014.91;5416586;26;20136;-57
2024/04/20 09:36:54;;;;;;;16.85;2.83;;;;;;;8.43;59.51;102006.25;5432459;26;20364;-60
2024/04/20 09:39:22;;;;;;;17.65;2.83;;;;;;;8.80;60.09;102001.44;5429122;26;20002;-60
2024/04/20 09:41:51;;;;;;;16.65;2.65;;;;;;;9.02;59.87;102010.31;5411183;26;20083;-61
2024/04/20 09:44:19;;;;;;;13.20;2.20;;;;;;;8.94;58.44;102002.56;5443362;26;20009;-60
2024/04/20 09:46:47;;;;;;;16.75;2.40;;;;;;;9.19;58.14;102009.25;5408483;26;20457;-61
2024/04/20 09:49:15;;;;;;;14.63;2.78;;;;;;;9.02;57.55;102015.78;5413029;26;19998;-62
2024/04/20 09:51:49;;;;;;;14.75;2.95;;;;;;;9.12;57.80;102003.19;5440031;26;20438;-61
2024/04/20 09:54:25;;;;;;;13.20;2.50;;;;;;;9.24;56.86;102004.53;5388685;26;20003;-60
2024/04/20 09:56:53;;;;;;;12.23;2.45;;;;;;;8.98;57.23;102000.94;5416527;26;20000;-61
2024/04/20 09:59:21;;;;;;;15.23;2.72;;;;;;;9.37;57.46;101995.78;5396249;26;20010;-61
2024/04/20 10:01:50;;;;;;;15.20;3.22;;;;;;;9.08;57.10;101994.66;5381021;26;20003;-62
2024/04/20 10:04:23;;;;;;;12.38;2.85;;;;;;;9.22;56.83;102012.25;5383882;26;20014;-61
2024/04/20 10:06:52;;;;;;;13.82;2.70;;;;;;;8.99;58.76;102008.09;5404967;26;20003;-59
2024/04/20 10:09:19;;;;;;;12.57;2.78;;;;;;;9.14;57.89;102004.53;5428024;26;20010;-59
2024/04/20 10:11:47;;;;;;;13.98;2.72;;;;;;;9.18;57.76;102005.66;5390352;26;20011;-63
2024/04/20 10:14:14;;;;;;;14.50;2.88;;;;;;;9.42;57.26;102001.28;5372748;26;20002;-62
2024/04/20 10:16:42;;;;;;;17.60;3.13;;;;;;;9.65;55.25;101999.88;5388000;26;20007;-62
2024/04/20 10:19:09;;;;;;;18.05;2.30;;;;;;;10.04;54.09;101995.44;5424430;26;20010;-62
2024/04/20 10:21:38;;;;;;;11.55;2.53;;;;;;;9.52;54.45;102005.97;5396156;26;20002;-62
2024/04/20 10:24:09;;;;;;;12.10;2.85;;;;;;;9.47;53.97;102015.03;5416437;26;20014;-62
2024/04/20 10:26:36;;;;;;;21.48;3.53;;;;;;;9.39;54.61;102015.56;5402946;26;20003;-61
2024/04/20 10:29:08;;;;;;;17.98;2.95;;;;;;;9.15;55.49;101999.88;5394476;26;20097;-62
2024/04/20 10:31:36;;;;;;;13.18;2.75;;;;;;;9.48;56.17;102030.44;5390165;26;20014;-62
2024/04/20 10:34:04;;;;;;;17.02;2.83;;;;;;;9.17;57.07;102011.44;5393742;26;20784;-63
2024/04/20 10:36:31;;;;;;;12.63;2.45;;;;;;;9.08;56.61;102022.13;5399704;26;20006;-61
2024/04/20 10:39:05;;;;;;;12.75;2.83;;;;;;;9.09;56.73;102016.34;5419534;26;20014;-64
2024/04/20 10:41:39;;;;;;;20.77;3.42;;;;;;;9.06;57.91;102018.81;5437991;26;20080;-62
2024/04/20 10:44:14;;;;;;;13.25;3.22;;;;;;;9.45;55.86;102017.22;5409528;26;20000;-61
2024/04/20 10:46:47;;;;;;;13.07;3.00;;;;;;;9.31;54.68;102018.03;5407343;26;20461;-61
2024/04/20 10:49:15;;;;;;;16.58;2.80;;;;;;;9.23;55.56;102019.41;5404648;26;20004;-62
2024/04/20 10:51:56;;;;;;;15.68;3.70;;;;;;;9.40;54.81;102017.22;5436070;26;20003;-62
2024/04/20 10:54:25;;;;;;;14.25;3.90;;;;;;;9.65;54.88;102019.16;5415653;26;20000;-61
2024/04/20 10:56:55;;;;;;;17.88;3.00;;;;;;;9.13;54.85;102018.56;5346856;26;20563;-61
2024/04/20 10:59:22;;;;;;;14.68;2.85;;;;;;;8.93;56.07;102011.09;5420256;26;19998;-63
2024/04/20 11:01:50;;;;;;;16.23;3.20;;;;;;;9.50;56.18;102025.47;5403304;26;20007;-62
2024/04/20 11:04:22;;;;;;;14.25;3.50;;;;;;;9.57;56.01;102025.22;5430940;26;20009;-61
2024/04/20 11:07:02;;;;;;;19.58;3.25;;;;;;;9.74;56.35;102032.09;5438373;26;20670;-61
2024/04/20 11:09:29;;;;;;;17.38;4.05;;;;;;;9.67;56.94;102031.53;5430597;26;20006;-60
2024/04/20 11:12:00;;;;;;;19.77;3.70;;;;;;;9.38;57.58;102033.16;5430445;26;20007;-60
2024/04/20 11:14:28;;;;;;;13.38;3.08;;;;;;;9.13;56.84;102022.13;5396740;26;20004;-60
2024/04/20 11:17:01;;;;;;;13.95;2.80;;;;;;;9.43;57.29;102013.91;5409418;26;20004;-62
2024/04/20 11:19:32;;;;;;;15.50;2.72;;;;;;;9.73;56.96;102008.41;5435312;26;20032;-63
2024/04/20 11:22:00;;;;;;;16.77;3.88;;;;;;;9.81;55.75;102027.13;5377518;26;20014;-60
2024/04/20 11:24:28;;;;;;;9.45;2.70;;;;;;;9.73;55.54;102015.84;5373825;26;20003;-61
2024/04/20 11:27:08;;;;;;;14.45;3.25;;;;;;;9.71;55.41;102013.34;5409088;26;20003;-61
2024/04/20 11:29:35;;;;;;;16.08;3.25;;;;;;;9.86;56.79;102010.63;5378660;26;20339;-61